Aeroporto :
LOGIN :

Iscrizione | Disclaimer

   EN    FR    IT 

 










Sommario :    VFR   VFR Marginale   IFR   IFR Intensivo   IFR Molto Intensivo
Visibilità : 
Base nubi : 
>= 8 km
>= 3000ft
5 / 8 km
1000 / 3000 ft
1500m / 5 km
500 / 1000 ft
800 / 1500m
200 / 500 ft
< 800m
< 200 ft
Simboli :   Temporali  Nebbia  Neve Forte  Precipitazioni Forti  Vento > 20 kt
SIGMETs :   Varie  Temporali  Ghiacco  Turbolenza  Onda orograficha  Ceneri Vulcaniche






- Altitudine del aeroporto : 1465 ft


LSMP - Payerne

ULTIMO METAR :
  • 301150Z AUTO 20008KT 9999NDV FEW078 03/M03 Q1027 RMK

METARs OBSOLETI :
  • 301120Z AUTO 20007KT 160V240 9999NDV NCD 02/M03 Q1027 RMK
  • 301050Z 20006KT 160V230 9999 FEW030 02/M03 Q1027 RMK BLU+
  • 301020Z 21003KT 160V240 CAVOK 01/M03 Q1028 RMK BLU
  • 300950Z VRB02KT CAVOK 01/M03 Q1027 RMK BLU
  • 300920Z 00000KT 9000 NSC M01/M04 Q1027 RMK BLU
  • 300850Z VRB01KT 7000 NSC M03/M05 Q1027 RMK WHT

Previsioni scadute.



MetMap, La meteo Aeronautica in un colpo d'occhio ! - Copyright ORBIFLY Dicembre 2007 - Disclaimer

ORBIFLY MET'MAP TEAM :

Programmazione e sviluppo : Alexandra Zaïnal
Concezione : Baudouin d'Aumeries
Supporto tecnico e logistico : Manuel Goepfert
Aiuto : Marc-Olivier Méhu
Aiuto per la traduzione : Arnaldo La Scala




FONTI E CREDITI :

   NOAA